createdAt,value
2023-01-11T00:00:28.725Z,13.48
2023-01-11T00:02:59.732Z,20.50
2023-01-11T00:05:26.840Z,15.00
2023-01-11T00:07:53.968Z,15.73
2023-01-11T00:10:21.138Z,16.52
2023-01-11T00:12:48.170Z,12.35
2023-01-11T00:15:15.646Z,16.33
2023-01-11T00:17:42.708Z,13.73
2023-01-11T00:20:12.161Z,20.17
2023-01-11T00:22:39.294Z,9.80
2023-01-11T00:25:06.543Z,14.70
2023-01-11T00:27:33.540Z,17.00
2023-01-11T00:30:00.618Z,12.13
2023-01-11T00:32:27.807Z,12.88
2023-01-11T00:34:54.929Z,18.05
2023-01-11T00:37:21.997Z,11.60
2023-01-11T00:39:49.029Z,18.35
2023-01-11T00:42:34.828Z,12.02
2023-01-11T00:45:20.742Z,14.23
2023-01-11T00:48:04.999Z,10.88
2023-01-11T00:50:33.007Z,15.85
2023-01-11T00:53:00.134Z,16.50
2023-01-11T00:55:27.659Z,12.70
2023-01-11T00:57:54.733Z,14.27
2023-01-11T01:00:22.098Z,18.83
2023-01-11T01:02:49.314Z,14.48
2023-01-11T01:05:16.661Z,10.35
2023-01-11T01:07:43.859Z,12.20
2023-01-11T01:10:11.314Z,12.63
2023-01-11T01:12:57.059Z,10.82
2023-01-11T01:15:24.122Z,15.95
2023-01-11T01:17:53.848Z,15.38
2023-01-11T01:20:21.161Z,12.67
2023-01-11T01:22:48.279Z,11.90
2023-01-11T01:25:15.870Z,15.20
2023-01-11T01:27:42.918Z,15.85
2023-01-11T01:30:10.367Z,8.93
2023-01-11T01:32:37.432Z,10.77
2023-01-11T01:35:04.579Z,11.63
2023-01-11T01:37:31.630Z,12.15
2023-01-11T01:39:58.701Z,11.23
2023-01-11T01:42:25.769Z,9.95
2023-01-11T01:44:59.818Z,11.73
2023-01-11T01:47:29.927Z,17.73
2023-01-11T01:49:57.784Z,14.10
2023-01-11T01:52:29.092Z,10.98
2023-01-11T01:54:56.835Z,14.35
2023-01-11T01:57:24.627Z,14.25
2023-01-11T01:59:51.906Z,10.30
2023-01-11T02:02:19.829Z,13.27
2023-01-11T02:04:46.951Z,9.63
2023-01-11T02:07:40.266Z,10.63
2023-01-11T02:10:20.448Z,11.45
2023-01-11T02:12:49.233Z,17.52
2023-01-11T02:15:16.342Z,14.68
2023-01-11T02:17:43.449Z,9.73
2023-01-11T02:20:10.462Z,12.02
2023-01-11T02:22:40.252Z,16.58
2023-01-11T02:25:25.923Z,14.95
2023-01-11T02:27:56.303Z,24.20
2023-01-11T02:30:23.317Z,11.60
2023-01-11T02:33:08.908Z,13.70
2023-01-11T02:35:50.269Z,14.38
2023-01-11T02:38:33.604Z,15.85
2023-01-11T02:41:06.692Z,13.27
2023-01-11T02:44:18.254Z,15.07
2023-01-11T02:46:47.534Z,15.65
2023-01-11T02:49:18.208Z,13.65
2023-01-11T02:51:49.154Z,17.25
2023-01-11T02:54:18.584Z,16.15
2023-01-11T02:56:46.402Z,15.60
2023-01-11T02:59:14.991Z,16.70
2023-01-11T03:01:46.112Z,12.50
2023-01-11T03:04:23.086Z,12.73
2023-01-11T03:06:50.119Z,14.93
2023-01-11T03:09:20.438Z,11.98
2023-01-11T03:12:11.713Z,17.60
2023-01-11T03:14:41.580Z,14.73
2023-01-11T03:17:11.773Z,11.55
2023-01-11T03:19:50.256Z,17.40
2023-01-11T03:22:20.098Z,12.45
2023-01-11T03:24:48.950Z,17.60
2023-01-11T03:27:18.808Z,11.50
2023-01-11T03:29:48.867Z,15.68
2023-01-11T03:32:15.921Z,17.17
2023-01-11T03:34:52.036Z,16.45
2023-01-11T03:37:21.586Z,13.20
2023-01-11T03:40:07.634Z,16.30
2023-01-11T03:42:34.689Z,18.80
2023-01-11T03:45:01.873Z,14.13
2023-01-11T03:47:29.332Z,16.27
2023-01-11T03:49:57.684Z,14.27
2023-01-11T03:52:25.780Z,21.35
2023-01-11T03:54:53.406Z,13.07
2023-01-11T03:57:24.455Z,13.35
2023-01-11T03:59:51.534Z,12.65
2023-01-11T04:02:22.325Z,10.73
2023-01-11T04:04:49.436Z,17.23
2023-01-11T04:07:16.558Z,13.55
2023-01-11T04:09:43.597Z,10.98
2023-01-11T04:12:10.764Z,13.77
2023-01-11T04:14:37.917Z,11.05
2023-01-11T04:17:05.291Z,13.05
2023-01-11T04:19:32.355Z,16.00
2023-01-11T04:21:59.418Z,16.45
2023-01-11T04:24:26.512Z,13.00
2023-01-11T04:26:53.528Z,22.23
2023-01-11T04:29:20.582Z,14.18
2023-01-11T04:31:47.716Z,14.45
2023-01-11T04:34:14.776Z,21.48
2023-01-11T04:36:41.871Z,16.48
2023-01-11T04:39:10.722Z,16.27
2023-01-11T04:41:56.694Z,13.35
2023-01-11T04:44:23.784Z,13.63
2023-01-11T04:46:50.957Z,11.52
2023-01-11T04:49:18.031Z,13.02
2023-01-11T04:51:45.130Z,9.45
2023-01-11T04:54:12.182Z,12.60
2023-01-11T04:56:39.266Z,13.07
2023-01-11T04:59:06.304Z,12.38
2023-01-11T05:01:33.408Z,15.20
2023-01-11T05:04:00.499Z,15.13
2023-01-11T05:06:27.710Z,13.80
2023-01-11T05:08:54.887Z,13.50
2023-01-11T05:11:22.027Z,10.15
2023-01-11T05:13:49.120Z,15.20
2023-01-11T05:16:17.560Z,10.05
2023-01-11T05:19:04.942Z,11.68
2023-01-11T05:21:32.879Z,16.08
2023-01-11T05:24:00.408Z,11.90
2023-01-11T05:26:28.244Z,12.70
2023-01-11T05:28:55.990Z,16.70
2023-01-11T05:31:23.160Z,12.90
2023-01-11T05:33:50.211Z,15.05
2023-01-11T05:36:18.169Z,12.55
2023-01-11T05:38:48.240Z,11.20
2023-01-11T05:41:15.367Z,14.23
2023-01-11T05:44:02.866Z,12.38
2023-01-11T05:46:29.951Z,17.00
2023-01-11T05:48:57.118Z,11.70
2023-01-11T05:51:24.154Z,14.10
2023-01-11T05:53:51.205Z,11.68
2023-01-11T05:56:18.252Z,13.32
2023-01-11T05:58:47.689Z,12.52
2023-01-11T06:01:14.754Z,13.15
2023-01-11T06:03:41.852Z,12.07
2023-01-11T06:06:09.004Z,11.60
2023-01-11T06:08:36.091Z,17.35
2023-01-11T06:11:03.326Z,13.25
2023-01-11T06:13:30.507Z,15.82
2023-01-11T06:16:03.303Z,13.07
2023-01-11T06:18:31.155Z,13.13
2023-01-11T06:20:58.413Z,14.75
2023-01-11T06:23:25.789Z,15.20
2023-01-11T06:25:52.973Z,19.35
2023-01-11T06:28:20.135Z,19.90
2023-01-11T06:30:53.545Z,14.38
2023-01-11T06:33:20.690Z,15.38
2023-01-11T06:35:47.741Z,14.43
2023-01-11T06:38:15.135Z,18.65
2023-01-11T06:40:42.327Z,20.02
2023-01-11T06:43:09.553Z,18.48
2023-01-11T06:45:39.818Z,16.42
2023-01-11T06:48:07.045Z,18.77
2023-01-11T06:50:34.071Z,17.08
2023-01-11T06:53:03.938Z,17.80
2023-01-11T06:55:31.129Z,13.98
2023-01-11T06:57:58.239Z,15.88
2023-01-11T07:00:25.378Z,11.77
2023-01-11T07:02:52.583Z,12.88
2023-01-11T07:05:20.045Z,13.23
2023-01-11T07:07:47.201Z,13.55
2023-01-11T07:10:17.314Z,14.40
2023-01-11T07:12:44.357Z,14.20
2023-01-11T07:15:11.466Z,13.48
2023-01-11T07:17:38.569Z,11.73
2023-01-11T07:20:06.226Z,10.23
2023-01-11T07:22:36.518Z,9.45
2023-01-11T07:25:04.286Z,10.93
2023-01-11T07:27:31.407Z,9.88
2023-01-11T07:30:01.298Z,10.93
2023-01-11T07:32:28.584Z,10.85
2023-01-11T07:34:55.914Z,9.88
2023-01-11T07:37:28.990Z,10.82
2023-01-11T07:39:56.566Z,8.68
2023-01-11T07:42:42.541Z,9.15
2023-01-11T07:45:09.859Z,11.98
2023-01-11T07:47:36.905Z,10.45
2023-01-11T07:50:04.049Z,10.13
2023-01-11T07:52:31.062Z,10.75
2023-01-11T07:55:02.357Z,12.57
2023-01-11T07:57:33.035Z,13.07
2023-01-11T08:02:27.226Z,15.05
2023-01-11T08:04:54.383Z,14.07
2023-01-11T08:07:21.465Z,10.77
2023-01-11T08:09:48.494Z,13.13
2023-01-11T08:12:34.131Z,14.07
2023-01-11T08:15:01.214Z,14.23
2023-01-11T08:17:28.352Z,14.25
2023-01-11T08:19:55.877Z,12.73
2023-01-11T08:22:22.957Z,15.68
2023-01-11T08:24:50.594Z,13.77
2023-01-11T08:27:17.704Z,13.13
2023-01-11T08:29:44.736Z,12.43
2023-01-11T08:32:14.837Z,11.95
2023-01-11T08:34:41.980Z,9.85
2023-01-11T08:37:09.365Z,11.32
2023-01-11T08:39:36.437Z,11.48
2023-01-11T08:42:03.545Z,11.50
2023-01-11T08:44:34.637Z,9.95
2023-01-11T08:47:02.249Z,9.57
2023-01-11T08:49:30.426Z,9.07
2023-01-11T08:51:57.534Z,9.20
2023-01-11T08:54:25.086Z,8.70
2023-01-11T08:56:52.187Z,9.57
2023-01-11T08:59:20.080Z,10.02
2023-01-11T09:01:47.429Z,7.95
2023-01-11T09:04:24.251Z,8.40
2023-01-11T09:06:52.361Z,9.18
2023-01-11T09:09:19.416Z,7.90
2023-01-11T09:11:56.972Z,7.30
2023-01-11T09:14:24.769Z,7.72
2023-01-11T09:16:52.283Z,7.93
2023-01-11T09:19:19.342Z,8.73
2023-01-11T09:21:46.710Z,9.25
2023-01-11T09:24:14.028Z,7.85
2023-01-11T09:26:43.283Z,7.90
2023-01-11T09:29:10.716Z,6.75
2023-01-11T09:31:37.951Z,8.27
2023-01-11T09:34:06.868Z,6.80
2023-01-11T09:36:36.024Z,8.23
2023-01-11T09:39:07.842Z,7.65
2023-01-11T09:41:34.880Z,8.00
2023-01-11T09:44:02.215Z,9.18
2023-01-11T09:46:29.329Z,9.55
2023-01-11T09:49:03.270Z,8.00
2023-01-11T09:51:34.233Z,8.05
2023-01-11T09:54:02.848Z,6.40
2023-01-11T09:56:31.890Z,7.43
2023-01-11T09:59:19.117Z,5.88
2023-01-11T10:01:50.818Z,6.85
2023-01-11T10:04:22.428Z,7.10
2023-01-11T10:07:11.532Z,9.27
2023-01-11T10:18:38.836Z,5.57
2023-01-11T10:18:57.965Z,8.52
2023-01-11T10:21:26.537Z,6.50
2023-01-11T10:23:55.843Z,7.00
2023-01-11T10:26:27.571Z,8.10
2023-01-11T10:29:16.812Z,6.85
2023-01-11T10:31:55.742Z,7.25
2023-01-11T10:34:41.252Z,7.70
2023-01-11T10:37:34.098Z,8.07
2023-01-11T10:40:19.452Z,9.82
2023-01-11T10:42:52.245Z,6.43
2023-01-11T10:45:19.814Z,9.35
2023-01-11T10:48:06.974Z,8.85
2023-01-11T10:50:36.741Z,6.70
2023-01-11T10:53:03.935Z,7.07
2023-01-11T10:55:46.111Z,7.05
2023-01-11T10:58:32.289Z,7.10
2023-01-11T11:01:04.054Z,5.97
2023-01-11T11:03:34.750Z,6.68
2023-01-11T11:06:05.336Z,5.65
2023-01-11T11:11:11.682Z,7.95
2023-01-11T11:13:57.079Z,5.45
2023-01-11T11:16:24.179Z,5.38
2023-01-11T11:18:51.786Z,4.88
2023-01-11T11:21:22.901Z,8.75
2023-01-11T11:23:52.335Z,5.30
2023-01-11T11:26:19.383Z,6.30
2023-01-11T11:28:59.520Z,6.43
2023-01-11T11:31:26.686Z,9.68
2023-01-11T11:33:53.740Z,7.60
2023-01-11T11:36:20.771Z,13.02
2023-01-11T11:39:06.670Z,10.35
2023-01-11T11:41:45.243Z,11.70
2023-01-11T11:44:17.298Z,8.85
2023-01-11T11:46:56.698Z,7.32
2023-01-11T11:49:23.848Z,5.72
2023-01-11T11:51:50.923Z,4.72
2023-01-11T11:54:22.321Z,4.25
2023-01-11T11:56:49.371Z,4.45
2023-01-11T11:59:17.283Z,9.98
2023-01-11T12:01:47.026Z,12.00
2023-01-11T12:04:24.101Z,8.77
2023-01-11T12:07:04.519Z,5.53
2023-01-11T12:09:32.131Z,4.75
2023-01-11T12:11:59.230Z,5.15
2023-01-11T12:14:27.973Z,6.22
2023-01-11T12:16:55.114Z,5.68
2023-01-11T12:19:26.312Z,5.85
2023-01-11T12:21:53.424Z,7.85
2023-01-11T12:24:20.947Z,8.85
2023-01-11T12:26:54.159Z,4.03
2023-01-11T12:29:27.280Z,3.10
2023-01-11T12:32:03.913Z,5.15
2023-01-11T12:34:35.216Z,3.88
2023-01-11T12:37:09.445Z,5.05
2023-01-11T12:39:43.966Z,4.95
2023-01-11T12:42:29.731Z,5.00
2023-01-11T12:44:59.814Z,3.40
2023-01-11T12:47:41.558Z,4.57
2023-01-11T12:50:17.475Z,3.70
2023-01-11T12:52:47.331Z,3.90
2023-01-11T12:55:24.629Z,6.18
2023-01-11T12:58:00.349Z,2.53
2023-01-11T13:00:39.666Z,10.55
2023-01-11T13:03:06.692Z,9.30
2023-01-11T13:05:52.518Z,4.85
2023-01-11T13:08:26.377Z,7.47
2023-01-11T13:10:53.394Z,5.10
2023-01-11T13:13:23.187Z,6.82
2023-01-11T13:16:01.333Z,5.13
2023-01-11T13:18:30.731Z,2.15
2023-01-11T13:21:01.849Z,4.30
2023-01-11T13:23:32.935Z,6.80
2023-01-11T13:26:01.921Z,5.30
2023-01-11T13:28:34.053Z,1.45
2023-01-11T13:31:02.124Z,4.72
2023-01-11T13:33:30.957Z,5.75
2023-01-11T13:36:07.504Z,6.38
2023-01-11T13:38:47.779Z,4.63
2023-01-11T13:41:17.105Z,5.40
2023-01-11T13:44:03.148Z,5.32
2023-01-11T13:46:33.221Z,10.40
2023-01-11T13:49:01.482Z,9.57
2023-01-11T13:51:31.626Z,6.30
2023-01-11T13:54:04.524Z,7.15
2023-01-11T13:56:40.150Z,5.47
2023-01-11T13:59:17.508Z,9.32
2023-01-11T14:01:56.012Z,9.82
2023-01-11T14:04:32.190Z,10.23
2023-01-11T14:06:59.362Z,10.95
2023-01-11T14:09:26.475Z,12.73
2023-01-11T14:12:15.154Z,11.52
2023-01-11T14:15:01.218Z,17.42
2023-01-11T14:17:38.270Z,13.77
2023-01-11T14:20:05.402Z,9.43
2023-01-11T14:29:30.797Z,14.05
2023-01-11T14:32:27.289Z,14.98
2023-01-11T14:35:12.779Z,19.67
2023-01-11T14:37:42.880Z,14.35
2023-01-11T14:40:24.953Z,10.48
2023-01-11T14:42:54.807Z,12.52
2023-01-11T14:45:24.601Z,14.27
2023-01-11T14:47:58.714Z,15.05
2023-01-11T14:50:25.837Z,11.65
2023-01-11T14:52:52.988Z,13.30
2023-01-11T14:55:24.077Z,12.05
2023-01-11T14:57:57.172Z,10.35
2023-01-11T15:00:24.203Z,7.78
2023-01-11T15:02:51.739Z,15.43
2023-01-11T15:05:33.521Z,17.25
2023-01-11T15:08:16.100Z,11.70
2023-01-11T15:10:48.321Z,12.50
2023-01-11T15:13:23.103Z,10.95
2023-01-11T15:16:08.833Z,13.02
2023-01-11T15:18:45.507Z,14.15
2023-01-11T15:21:40.642Z,9.73
2023-01-11T15:24:07.747Z,12.35
2023-01-11T15:26:34.775Z,13.73
2023-01-11T15:29:02.655Z,15.60
2023-01-11T15:31:48.639Z,22.83
2023-01-11T15:34:21.496Z,10.20
2023-01-11T15:36:52.199Z,11.40
2023-01-11T15:39:29.425Z,13.43
2023-01-11T15:42:05.686Z,5.88
2023-01-11T15:44:41.130Z,12.18
2023-01-11T15:47:27.159Z,10.70
2023-01-11T15:50:06.267Z,12.90
2023-01-11T15:52:50.253Z,16.13
2023-01-11T15:55:23.371Z,12.02
2023-01-11T15:57:56.347Z,16.25
2023-01-11T16:00:42.162Z,9.75
2023-01-11T16:03:27.913Z,14.70
2023-01-11T16:05:58.357Z,17.52
2023-01-11T16:08:41.418Z,14.05
2023-01-11T16:11:11.565Z,18.17
2023-01-11T16:13:44.623Z,10.48
2023-01-11T16:16:11.668Z,16.83
2023-01-11T16:18:39.927Z,11.00
2023-01-11T16:21:08.112Z,14.82
2023-01-11T16:23:35.277Z,12.52
2023-01-11T16:26:02.423Z,15.40
2023-01-11T16:28:29.577Z,15.30
2023-01-11T16:31:01.260Z,17.02
2023-01-11T16:33:29.399Z,15.45
2023-01-11T16:36:11.787Z,8.68
2023-01-11T16:38:46.768Z,13.73
2023-01-11T16:41:14.669Z,12.30
2023-01-11T16:43:47.796Z,18.58
2023-01-11T16:46:27.447Z,11.88
2023-01-11T16:49:02.327Z,15.83
2023-01-11T16:54:23.284Z,13.43
2023-01-11T16:56:50.344Z,24.67
2023-01-11T16:59:24.319Z,14.52
2023-01-11T17:02:03.489Z,12.10
2023-01-11T17:04:34.679Z,11.48
2023-01-11T17:07:28.302Z,17.23
2023-01-11T17:10:15.172Z,14.07
2023-01-11T17:12:43.506Z,11.85
2023-01-11T17:15:29.297Z,17.40
2023-01-11T17:17:56.317Z,23.65
2023-01-11T17:20:24.097Z,27.80
2023-01-11T17:22:53.692Z,31.50
2023-01-11T17:25:22.086Z,34.87
2023-01-11T17:27:50.936Z,29.73
2023-01-11T17:30:19.085Z,27.15
2023-01-11T17:32:46.724Z,27.52
2023-01-11T17:35:17.633Z,29.73
2023-01-11T17:37:44.974Z,34.58
2023-01-11T17:40:20.679Z,32.10
2023-01-11T17:43:06.221Z,24.90
2023-01-11T17:45:33.292Z,27.23
2023-01-11T17:48:10.281Z,35.25
2023-01-11T17:50:38.951Z,35.85
2023-01-11T17:53:16.724Z,32.65
2023-01-11T17:55:59.917Z,42.53
2023-01-11T17:58:36.628Z,42.40
2023-01-11T18:01:09.300Z,50.03
2023-01-11T18:03:39.825Z,24.83
2023-01-11T18:06:10.188Z,22.35
2023-01-11T18:08:37.250Z,18.15
2023-01-11T18:11:04.304Z,18.83
2023-01-11T18:13:33.814Z,20.05
2023-01-11T18:16:01.060Z,22.25
2023-01-11T18:18:44.549Z,19.98
2023-01-11T18:21:26.954Z,21.90
2023-01-11T18:24:12.682Z,15.68
2023-01-11T18:26:40.744Z,14.95
2023-01-11T18:29:21.143Z,16.92
2023-01-11T18:31:48.229Z,23.50
2023-01-11T18:34:15.381Z,21.27
2023-01-11T18:36:42.448Z,16.35
2023-01-11T18:39:12.600Z,15.45
2023-01-11T18:41:58.217Z,17.02
2023-01-11T18:44:25.270Z,19.10
2023-01-11T18:46:52.433Z,13.38
2023-01-11T18:49:19.501Z,15.02
2023-01-11T18:51:46.547Z,19.92
2023-01-11T18:54:15.569Z,13.35
2023-01-11T18:56:42.601Z,14.68
2023-01-11T18:59:09.704Z,16.65
2023-01-11T19:01:52.802Z,24.80
2023-01-11T19:04:24.074Z,12.10
2023-01-11T19:06:52.352Z,17.35
2023-01-11T19:09:19.515Z,16.33
2023-01-11T19:11:46.617Z,19.17
2023-01-11T19:14:13.827Z,14.70
2023-01-11T19:16:40.847Z,22.10
2023-01-11T19:19:07.912Z,20.13
2023-01-11T19:21:35.048Z,14.57
2023-01-11T19:24:02.280Z,16.98
2023-01-11T19:26:29.548Z,16.10
2023-01-11T19:28:56.826Z,14.68
2023-01-11T19:31:24.048Z,21.75
2023-01-11T19:33:51.233Z,14.45
2023-01-11T19:36:18.500Z,30.88
2023-01-11T19:38:45.750Z,14.50
2023-01-11T19:41:15.371Z,18.77
2023-01-11T19:43:44.954Z,17.60
2023-01-11T19:46:19.618Z,14.52
2023-01-11T19:48:53.064Z,20.13
2023-01-11T19:51:20.075Z,15.90
2023-01-11T19:53:47.151Z,14.18
2023-01-11T19:56:14.201Z,22.08
2023-01-11T19:58:41.228Z,13.85
2023-01-11T20:01:11.593Z,13.43
2023-01-11T20:03:41.397Z,15.63
2023-01-11T20:06:08.901Z,23.02
2023-01-11T20:08:40.574Z,20.85
2023-01-11T20:11:07.743Z,26.67
2023-01-11T20:13:34.830Z,15.07
2023-01-11T20:16:05.836Z,24.73
2023-01-11T20:18:32.897Z,22.05
2023-01-11T20:20:59.958Z,26.00
2023-01-11T20:23:27.238Z,37.70
2023-01-11T20:26:04.383Z,26.17
2023-01-11T20:28:34.562Z,22.15
2023-01-11T20:31:02.491Z,25.48
2023-01-11T20:33:29.616Z,12.68
2023-01-11T20:35:56.987Z,16.60
2023-01-11T20:38:24.105Z,12.25
2023-01-11T20:40:51.204Z,13.43
2023-01-11T20:43:18.250Z,16.48
2023-01-11T20:45:45.920Z,15.75
2023-01-11T20:48:13.089Z,17.67
2023-01-11T20:50:40.137Z,15.90
2023-01-11T20:53:07.330Z,22.23
2023-01-11T20:55:34.431Z,6.93
2023-01-11T20:58:01.556Z,14.80
2023-01-11T21:00:29.647Z,13.85
2023-01-11T21:02:56.750Z,16.05
2023-01-11T21:05:23.792Z,15.43
2023-01-11T21:07:53.089Z,13.05
2023-01-11T21:10:20.114Z,13.45
2023-01-11T21:15:13.601Z,9.10
2023-01-11T21:17:40.631Z,18.33
2023-01-11T21:20:07.988Z,11.65
2023-01-11T21:22:35.051Z,15.48
2023-01-11T21:25:02.144Z,14.95
2023-01-11T21:27:30.131Z,17.65
2023-01-11T21:29:57.212Z,11.65
2023-01-11T21:32:24.279Z,11.85
2023-01-11T21:34:51.327Z,12.13
2023-01-11T21:37:20.896Z,10.18
2023-01-11T21:39:47.963Z,15.32
2023-01-11T21:42:15.028Z,9.32
2023-01-11T21:44:42.076Z,31.30
2023-01-11T21:47:09.116Z,15.35
2023-01-11T21:49:37.269Z,15.05
2023-01-11T21:52:04.366Z,14.93
2023-01-11T21:54:31.486Z,15.52
2023-01-11T21:56:58.508Z,10.43
2023-01-11T21:59:25.787Z,11.57
2023-01-11T22:01:52.900Z,17.98
2023-01-11T22:04:20.537Z,15.63
2023-01-11T22:06:51.127Z,15.63
2023-01-11T22:09:19.128Z,20.42
2023-01-11T22:11:46.292Z,21.08
2023-01-11T22:14:13.409Z,18.35
2023-01-11T22:16:40.803Z,17.98
2023-01-11T22:19:08.448Z,15.13
2023-01-11T22:21:35.933Z,14.63
2023-01-11T22:24:03.068Z,13.40
2023-01-11T22:26:33.306Z,17.83
2023-01-11T22:29:12.396Z,17.60
2023-01-11T22:31:40.201Z,14.48
2023-01-11T22:34:07.329Z,19.55
2023-01-11T22:36:34.419Z,17.48
2023-01-11T22:39:01.511Z,16.55
2023-01-11T22:41:28.609Z,13.73
2023-01-11T22:43:55.697Z,14.02
2023-01-11T22:46:23.751Z,15.18
2023-01-11T22:48:51.612Z,15.95
2023-01-11T22:51:19.425Z,19.02
2023-01-11T22:53:46.934Z,17.15
2023-01-11T22:56:14.758Z,16.42
2023-01-11T22:58:41.877Z,16.38
2023-01-11T23:01:12.848Z,19.33
2023-01-11T23:03:40.244Z,18.38
2023-01-11T23:06:07.391Z,12.73
2023-01-11T23:08:40.727Z,19.15
2023-01-11T23:11:12.440Z,14.88
2023-01-11T23:13:58.814Z,18.85
2023-01-11T23:16:25.989Z,14.13
2023-01-11T23:18:53.338Z,12.70
2023-01-11T23:21:20.620Z,17.17
2023-01-11T23:23:47.705Z,18.75
2023-01-11T23:26:18.052Z,16.77
2023-01-11T23:28:48.423Z,12.85
2023-01-11T23:31:16.827Z,12.75
2023-01-11T23:33:44.905Z,15.65
2023-01-11T23:36:11.989Z,14.45
2023-01-11T23:38:39.080Z,19.52
2023-01-11T23:41:25.794Z,20.30
2023-01-11T23:43:52.900Z,17.88
2023-01-11T23:46:38.549Z,19.20
2023-01-11T23:49:06.377Z,18.30
2023-01-11T23:51:33.763Z,14.23
2023-01-11T23:54:01.177Z,16.42
2023-01-11T23:56:28.805Z,17.80
2023-01-11T23:58:56.089Z,17.38
